createdAt,value
2018-11-26T00:01:25.403Z,15.93
2018-11-26T00:03:53.491Z,16.55
2018-11-26T00:06:21.675Z,16.90
2018-11-26T00:08:49.875Z,16.42
2018-11-26T00:11:34.566Z,16.55
2018-11-26T00:14:02.760Z,17.80
2018-11-26T00:16:30.911Z,15.55
2018-11-26T00:18:59.007Z,16.75
2018-11-26T00:21:27.174Z,16.62
2018-11-26T00:23:55.286Z,17.02
2018-11-26T00:26:23.448Z,16.42
2018-11-26T00:28:51.543Z,16.75
2018-11-26T00:31:19.718Z,15.98
2018-11-26T00:33:47.846Z,16.95
2018-11-26T00:36:16.015Z,16.55
2018-11-26T00:38:44.195Z,16.75
2018-11-26T00:41:12.363Z,16.80
2018-11-26T00:43:40.482Z,15.88
2018-11-26T00:46:08.647Z,16.60
2018-11-26T00:48:36.722Z,16.02
2018-11-26T00:51:05.579Z,15.88
2018-11-26T00:53:33.731Z,16.73
2018-11-26T00:56:01.922Z,16.52
2018-11-26T00:58:30.092Z,16.30
2018-11-26T01:00:58.284Z,17.50
2018-11-26T01:03:26.483Z,17.02
2018-11-26T01:05:54.662Z,16.87
2018-11-26T01:08:22.842Z,15.83
2018-11-26T01:10:51.024Z,16.25
2018-11-26T01:13:19.207Z,16.57
2018-11-26T01:15:47.320Z,15.65
2018-11-26T01:18:15.504Z,16.27
2018-11-26T01:20:43.682Z,15.95
2018-11-26T01:23:11.858Z,15.18
2018-11-26T01:25:40.067Z,16.15
2018-11-26T01:28:08.236Z,16.10
2018-11-26T01:30:36.856Z,15.63
2018-11-26T01:33:05.019Z,16.07
2018-11-26T01:35:33.207Z,15.88
2018-11-26T01:38:01.389Z,14.98
2018-11-26T01:40:34.986Z,16.07
2018-11-26T01:43:03.094Z,14.80
2018-11-26T01:45:31.288Z,15.65
2018-11-26T01:47:59.465Z,15.48
2018-11-26T01:50:27.646Z,15.78
2018-11-26T01:52:55.822Z,15.38
2018-11-26T01:55:23.923Z,15.83
2018-11-26T01:57:52.091Z,15.93
2018-11-26T02:00:22.318Z,15.55
2018-11-26T02:02:50.434Z,14.68
2018-11-26T02:05:18.619Z,14.30
2018-11-26T02:07:46.822Z,14.30
2018-11-26T02:10:16.454Z,15.30
2018-11-26T02:12:44.632Z,14.18
2018-11-26T02:15:14.119Z,14.07
2018-11-26T02:17:42.246Z,14.38
2018-11-26T02:20:10.776Z,14.65
2018-11-26T02:22:38.899Z,14.75
2018-11-26T02:25:08.083Z,14.28
2018-11-26T02:27:36.316Z,14.13
2018-11-26T02:30:04.883Z,14.87
2018-11-26T02:32:32.979Z,15.63
2018-11-26T02:35:01.163Z,13.20
2018-11-26T02:37:29.351Z,14.25
2018-11-26T02:39:57.552Z,15.88
2018-11-26T02:42:25.723Z,13.85
2018-11-26T02:44:53.884Z,15.03
2018-11-26T02:47:21.983Z,15.75
2018-11-26T02:49:50.056Z,14.87
2018-11-26T02:52:18.154Z,14.50
2018-11-26T02:54:46.232Z,15.00
2018-11-26T02:57:14.331Z,14.35
2018-11-26T02:59:42.506Z,14.55
2018-11-26T03:02:10.604Z,14.35
2018-11-26T03:04:38.775Z,15.65
2018-11-26T03:07:06.866Z,15.05
2018-11-26T03:09:35.044Z,15.78
2018-11-26T03:12:03.151Z,16.10
2018-11-26T03:14:31.363Z,15.15
2018-11-26T03:16:59.523Z,15.15
2018-11-26T03:19:27.691Z,15.93
2018-11-26T03:21:55.976Z,15.83
2018-11-26T03:24:24.081Z,14.53
2018-11-26T03:26:52.259Z,14.93
2018-11-26T03:29:20.346Z,15.65
2018-11-26T03:31:48.526Z,15.28
2018-11-26T03:34:16.619Z,15.85
2018-11-26T03:36:44.801Z,15.53
2018-11-26T03:39:12.891Z,17.23
2018-11-26T03:41:41.080Z,17.23
2018-11-26T03:44:09.271Z,16.23
2018-11-26T03:46:37.443Z,16.85
2018-11-26T03:49:05.917Z,16.35
2018-11-26T03:51:34.027Z,15.95
2018-11-26T03:54:02.120Z,16.37
2018-11-26T03:56:30.303Z,16.37
2018-11-26T03:58:58.479Z,17.30
2018-11-26T04:01:26.559Z,17.20
2018-11-26T04:03:54.655Z,15.80
2018-11-26T04:06:22.747Z,17.37
2018-11-26T04:08:50.822Z,17.32
2018-11-26T04:11:18.907Z,17.90
2018-11-26T04:13:46.993Z,17.25
2018-11-26T04:16:15.067Z,17.30
2018-11-26T04:18:43.173Z,17.30
2018-11-26T04:21:11.239Z,17.82
2018-11-26T04:23:39.327Z,17.17
2018-11-26T04:26:07.412Z,17.75
2018-11-26T04:28:35.492Z,16.55
2018-11-26T04:31:03.575Z,17.37
2018-11-26T04:33:31.656Z,17.05
2018-11-26T04:35:59.751Z,17.73
2018-11-26T04:38:27.827Z,16.37
2018-11-26T04:40:55.915Z,17.55
2018-11-26T04:43:23.995Z,17.62
2018-11-26T04:45:52.095Z,18.07
2018-11-26T04:48:20.263Z,16.35
2018-11-26T04:50:48.358Z,17.35
2018-11-26T04:53:16.442Z,17.57
2018-11-26T04:55:44.527Z,17.62
2018-11-26T04:58:12.722Z,18.15
2018-11-26T05:00:40.807Z,19.12
2018-11-26T05:03:08.987Z,18.62
2018-11-26T05:05:37.080Z,18.77
2018-11-26T05:08:05.269Z,18.80
2018-11-26T05:10:33.355Z,18.92
2018-11-26T05:13:01.538Z,20.82
2018-11-26T05:15:29.630Z,19.82
2018-11-26T05:17:57.800Z,20.80
2018-11-26T05:20:25.891Z,21.00
2018-11-26T05:22:54.077Z,20.50
2018-11-26T05:25:22.175Z,21.23
2018-11-26T05:27:50.347Z,21.23
2018-11-26T05:30:18.555Z,21.05
2018-11-26T05:32:46.719Z,21.85
2018-11-26T05:35:14.808Z,20.92
2018-11-26T05:37:42.909Z,21.48
2018-11-26T05:40:13.109Z,22.67
2018-11-26T05:42:41.596Z,22.02
2018-11-26T05:45:13.774Z,23.18
2018-11-26T05:47:41.887Z,21.93
2018-11-26T05:50:13.884Z,21.93
2018-11-26T05:52:42.103Z,21.77
2018-11-26T05:55:12.360Z,22.82
2018-11-26T05:57:40.467Z,22.13
2018-11-26T06:00:17.800Z,23.10
2018-11-26T06:02:45.971Z,21.97
2018-11-26T06:05:14.131Z,22.40
2018-11-26T06:07:42.271Z,22.32
2018-11-26T06:10:10.531Z,22.73
2018-11-26T06:12:41.812Z,23.00
2018-11-26T06:15:11.671Z,24.30
2018-11-26T06:17:39.972Z,22.20
2018-11-26T06:20:09.795Z,22.73
2018-11-26T06:22:38.019Z,23.65
2018-11-26T06:25:08.518Z,22.90
2018-11-26T06:27:36.671Z,22.95
2018-11-26T06:30:08.479Z,22.67
2018-11-26T06:32:36.590Z,23.12
2018-11-26T06:35:06.900Z,24.00
2018-11-26T06:37:35.015Z,23.15
2018-11-26T06:40:03.204Z,23.75
2018-11-26T06:42:31.382Z,23.77
2018-11-26T06:44:59.462Z,22.85
2018-11-26T06:47:27.564Z,23.30
2018-11-26T06:49:55.759Z,23.32
2018-11-26T06:52:23.932Z,23.73
2018-11-26T06:54:52.063Z,23.92
2018-11-26T06:57:20.227Z,22.50
2018-11-26T06:59:48.393Z,22.42
2018-11-26T07:02:16.685Z,21.75
2018-11-26T07:04:44.746Z,22.25
2018-11-26T07:07:12.838Z,22.73
2018-11-26T07:09:40.920Z,21.05
2018-11-26T07:12:09.008Z,22.75
2018-11-26T07:14:37.175Z,22.60
2018-11-26T07:17:05.662Z,22.35
2018-11-26T07:19:33.779Z,21.20
2018-11-26T07:22:01.856Z,20.77
2018-11-26T07:24:29.994Z,21.80
2018-11-26T07:26:58.118Z,20.45
2018-11-26T07:29:26.215Z,20.97
2018-11-26T07:31:54.299Z,19.25
2018-11-26T07:34:22.387Z,18.80
2018-11-26T07:36:50.460Z,19.40
2018-11-26T07:39:18.536Z,20.68
2018-11-26T07:41:46.635Z,19.45
2018-11-26T07:44:14.719Z,19.05
2018-11-26T07:46:42.791Z,18.65
2018-11-26T07:49:10.877Z,18.62
2018-11-26T07:51:38.942Z,18.95
2018-11-26T07:54:07.014Z,18.00
2018-11-26T07:56:35.099Z,19.50
2018-11-26T07:59:03.175Z,18.50
2018-11-26T08:01:31.249Z,19.10
2018-11-26T08:03:59.326Z,20.72
2018-11-26T08:06:27.409Z,20.17
2018-11-26T08:08:55.487Z,22.32
2018-11-26T08:11:23.569Z,20.82
2018-11-26T08:13:51.653Z,19.15
2018-11-26T08:16:19.723Z,17.15
2018-11-26T08:18:47.799Z,17.75
2018-11-26T08:21:15.878Z,17.42
2018-11-26T08:23:43.939Z,16.77
2018-11-26T08:26:12.016Z,15.80
2018-11-26T08:28:40.082Z,14.98
2018-11-26T08:31:08.156Z,14.38
2018-11-26T08:33:36.255Z,13.78
2018-11-26T08:36:09.935Z,13.45
2018-11-26T08:38:43.575Z,12.93
2018-11-26T08:41:14.330Z,13.72
2018-11-26T08:43:44.980Z,14.35
2018-11-26T08:46:18.181Z,14.07
2018-11-26T08:48:52.623Z,14.70
2018-11-26T08:51:21.032Z,15.00
2018-11-26T08:53:49.099Z,16.50
2018-11-26T08:56:17.177Z,17.90
2018-11-26T08:58:45.266Z,17.07
2018-11-26T09:01:19.083Z,16.12
2018-11-26T09:03:52.680Z,15.32
2018-11-26T09:06:21.386Z,15.53
2018-11-26T09:08:49.487Z,15.20
2018-11-26T09:11:17.566Z,16.12
2018-11-26T09:13:45.649Z,16.10
2018-11-26T09:16:13.731Z,15.53
2018-11-26T09:18:41.812Z,17.48
2018-11-26T09:21:09.911Z,16.15
2018-11-26T09:23:37.982Z,17.15
2018-11-26T09:26:06.079Z,16.10
2018-11-26T09:28:34.155Z,16.60
2018-11-26T09:31:02.312Z,15.32
2018-11-26T09:33:30.497Z,16.17
2018-11-26T09:35:58.702Z,16.12
2018-11-26T09:38:26.862Z,14.75
2018-11-26T09:40:55.452Z,14.75
2018-11-26T09:43:23.555Z,15.05
2018-11-26T09:45:51.741Z,13.53
2018-11-26T09:48:19.935Z,14.47
2018-11-26T09:50:48.111Z,13.85
2018-11-26T09:53:16.307Z,13.93
2018-11-26T09:55:44.483Z,13.90
2018-11-26T09:58:12.691Z,14.10
2018-11-26T10:00:40.859Z,14.45
2018-11-26T10:03:09.051Z,13.65
2018-11-26T10:05:37.227Z,16.32
2018-11-26T10:08:05.804Z,21.20
2018-11-26T10:10:33.926Z,13.93
2018-11-26T10:13:02.104Z,13.22
2018-11-26T10:15:30.315Z,13.95
2018-11-26T10:17:58.475Z,13.40
2018-11-26T10:20:26.657Z,13.98
2018-11-26T10:22:54.851Z,13.78
2018-11-26T10:25:23.550Z,12.53
2018-11-26T10:27:51.420Z,12.25
2018-11-26T10:30:20.968Z,11.70
2018-11-26T10:32:50.152Z,11.15
2018-11-26T10:35:19.096Z,11.90
2018-11-26T10:37:47.287Z,11.20
2018-11-26T10:40:19.751Z,10.40
2018-11-26T10:42:47.936Z,11.68
2018-11-26T10:45:17.195Z,11.97
2018-11-26T10:47:45.334Z,10.23
2018-11-26T10:50:15.515Z,9.80
2018-11-26T10:52:44.931Z,9.68
2018-11-26T10:55:17.401Z,10.15
2018-11-26T10:57:45.579Z,10.10
2018-11-26T11:00:20.291Z,10.43
2018-11-26T11:02:48.592Z,10.63
2018-11-26T11:05:16.751Z,10.48
2018-11-26T11:07:44.841Z,9.68
2018-11-26T11:10:16.275Z,9.48
2018-11-26T11:12:44.370Z,9.20
2018-11-26T11:15:12.846Z,10.03
2018-11-26T11:17:40.957Z,9.70
2018-11-26T11:20:14.459Z,9.65
2018-11-26T11:22:42.555Z,10.25
2018-11-26T11:25:12.060Z,9.90
2018-11-26T11:27:40.151Z,10.40
2018-11-26T11:30:13.261Z,10.00
2018-11-26T11:32:41.504Z,9.33
2018-11-26T11:35:10.848Z,10.65
2018-11-26T11:37:38.972Z,9.45
2018-11-26T11:40:16.648Z,10.03
2018-11-26T11:42:44.744Z,10.60
2018-11-26T11:45:13.427Z,8.95
2018-11-26T11:47:41.556Z,9.23
2018-11-26T11:50:18.472Z,18.05
2018-11-26T11:52:46.844Z,11.15
2018-11-26T11:55:20.621Z,10.05
2018-11-26T11:57:48.748Z,9.65
2018-11-26T12:00:26.280Z,9.35
2018-11-26T12:02:54.324Z,9.48
2018-11-26T12:05:22.400Z,9.65
2018-11-26T12:07:50.476Z,9.65
2018-11-26T12:10:18.553Z,9.08
2018-11-26T12:12:46.656Z,9.80
2018-11-26T12:15:15.948Z,10.25
2018-11-26T12:17:44.633Z,9.73
2018-11-26T12:20:13.644Z,9.53
2018-11-26T12:22:41.994Z,9.53
2018-11-26T12:25:14.373Z,10.30
2018-11-26T12:27:42.535Z,10.13
2018-11-26T12:30:26.796Z,10.48
2018-11-26T12:32:54.881Z,11.03
2018-11-26T12:35:22.970Z,11.05
2018-11-26T12:37:51.430Z,10.88
2018-11-26T12:40:20.657Z,11.53
2018-11-26T12:42:49.747Z,12.18
2018-11-26T12:45:21.940Z,16.57
2018-11-26T12:47:50.078Z,14.90
2018-11-26T12:50:18.284Z,11.60
2018-11-26T12:52:46.424Z,10.82
2018-11-26T12:55:15.516Z,11.73
2018-11-26T12:57:44.418Z,12.28
2018-11-26T13:00:19.936Z,11.95
2018-11-26T13:02:49.281Z,10.23
2018-11-26T13:05:18.505Z,12.45
2018-11-26T13:07:46.660Z,11.57
2018-11-26T13:10:15.844Z,11.70
2018-11-26T13:12:44.389Z,11.38
2018-11-26T13:15:13.702Z,11.30
2018-11-26T13:17:41.825Z,11.75
2018-11-26T13:20:11.613Z,10.53
2018-11-26T13:22:39.856Z,11.38
2018-11-26T13:25:10.536Z,10.90
2018-11-26T13:27:39.569Z,10.60
2018-11-26T13:30:11.048Z,10.63
2018-11-26T13:32:39.253Z,11.80
2018-11-26T13:35:09.435Z,12.07
2018-11-26T13:37:37.576Z,10.55
2018-11-26T13:40:10.216Z,11.10
2018-11-26T13:42:38.720Z,11.12
2018-11-26T13:45:09.761Z,10.75
2018-11-26T13:47:38.284Z,10.85
2018-11-26T13:50:11.973Z,11.35
2018-11-26T13:52:40.105Z,10.93
2018-11-26T13:55:11.426Z,12.10
2018-11-26T13:57:39.537Z,11.60
2018-11-26T14:00:09.744Z,11.63
2018-11-26T14:02:37.852Z,12.05
2018-11-26T14:05:10.208Z,12.13
2018-11-26T14:07:38.389Z,11.08
2018-11-26T14:10:09.837Z,11.85
2018-11-26T14:12:38.004Z,12.93
2018-11-26T14:15:08.692Z,13.60
2018-11-26T14:17:36.821Z,13.43
2018-11-26T14:20:07.592Z,12.53
2018-11-26T14:22:35.744Z,13.98
2018-11-26T14:25:03.940Z,13.22
2018-11-26T14:27:32.125Z,14.15
2018-11-26T14:30:00.305Z,19.37
2018-11-26T14:32:28.922Z,15.98
2018-11-26T14:34:57.076Z,13.18
2018-11-26T14:37:25.273Z,12.45
2018-11-26T14:39:53.460Z,12.63
2018-11-26T14:42:21.645Z,12.60
2018-11-26T14:44:49.832Z,12.23
2018-11-26T14:47:18.028Z,12.53
2018-11-26T14:49:46.207Z,12.65
2018-11-26T14:52:14.392Z,12.75
2018-11-26T14:54:42.596Z,12.23
2018-11-26T14:57:10.753Z,12.37
2018-11-26T14:59:38.852Z,12.33
2018-11-26T15:02:07.080Z,12.33
2018-11-26T15:04:35.232Z,11.85
2018-11-26T15:07:03.400Z,12.68
2018-11-26T15:09:31.493Z,8.88
2018-11-26T15:11:59.682Z,8.45
2018-11-26T15:14:27.769Z,10.58
2018-11-26T15:16:55.849Z,11.55
2018-11-26T15:19:23.929Z,11.10
2018-11-26T15:21:51.992Z,11.10
2018-11-26T15:24:20.080Z,11.33
2018-11-26T15:26:53.161Z,19.07
2018-11-26T15:29:16.249Z,12.68
2018-11-26T15:31:44.308Z,11.63
2018-11-26T15:34:12.385Z,10.40
2018-11-26T15:36:40.462Z,11.12
2018-11-26T15:39:09.516Z,12.03
2018-11-26T15:41:37.959Z,11.05
2018-11-26T15:44:06.492Z,10.25
2018-11-26T15:46:34.601Z,11.90
2018-11-26T15:49:02.679Z,11.25
2018-11-26T15:51:30.777Z,11.85
2018-11-26T15:53:59.156Z,11.25
2018-11-26T15:56:27.244Z,11.90
2018-11-26T15:58:55.420Z,11.43
2018-11-26T16:01:23.523Z,12.10
2018-11-26T16:03:51.696Z,12.20
2018-11-26T16:06:19.805Z,12.90
2018-11-26T16:08:47.965Z,12.53
2018-11-26T16:11:16.062Z,11.73
2018-11-26T16:13:44.124Z,13.10
2018-11-26T16:16:12.236Z,12.55
2018-11-26T16:18:40.412Z,12.85
2018-11-26T16:21:08.496Z,13.38
2018-11-26T16:23:36.596Z,12.40
2018-11-26T16:27:08.797Z,12.15
2018-11-26T16:29:36.965Z,14.53
2018-11-26T16:32:05.269Z,13.15
2018-11-26T16:34:33.339Z,14.10
2018-11-26T16:37:01.428Z,14.40
2018-11-26T16:39:29.501Z,15.05
2018-11-26T16:41:57.588Z,14.47
2018-11-26T16:44:25.676Z,14.93
2018-11-26T16:46:53.760Z,15.50
2018-11-26T16:49:21.885Z,15.30
2018-11-26T16:51:50.041Z,16.00
2018-11-26T16:54:18.213Z,15.50
2018-11-26T16:56:46.516Z,15.58
2018-11-26T16:59:14.698Z,15.80
2018-11-26T17:01:42.773Z,17.07
2018-11-26T17:04:10.848Z,17.75
2018-11-26T17:06:38.944Z,16.87
2018-11-26T17:09:09.159Z,16.62
2018-11-26T17:11:37.400Z,18.07
2018-11-26T17:14:05.784Z,18.12
2018-11-26T17:16:33.856Z,18.57
2018-11-26T17:19:02.072Z,22.15
2018-11-26T17:21:30.215Z,20.32
2018-11-26T17:23:58.316Z,17.12
2018-11-26T17:26:26.392Z,18.12
2018-11-26T17:28:54.586Z,17.92
2018-11-26T17:31:22.801Z,17.87
2018-11-26T17:33:50.954Z,17.00
2018-11-26T17:36:19.029Z,17.52
2018-11-26T17:38:47.116Z,18.35
2018-11-26T17:41:15.196Z,18.10
2018-11-26T17:43:43.293Z,18.80
2018-11-26T17:46:11.473Z,17.57
2018-11-26T17:48:39.559Z,18.23
2018-11-26T17:51:07.632Z,18.42
2018-11-26T17:53:35.724Z,17.95
2018-11-26T17:56:03.808Z,17.70
2018-11-26T17:58:31.897Z,18.30
2018-11-26T18:01:06.707Z,17.95
2018-11-26T18:03:34.834Z,17.67
2018-11-26T18:06:02.913Z,17.60
2018-11-26T18:08:30.992Z,16.97
2018-11-26T18:10:59.368Z,17.48
2018-11-26T18:13:27.569Z,17.20
2018-11-26T18:15:55.662Z,17.40
2018-11-26T18:18:23.965Z,17.85
2018-11-26T18:20:51.929Z,17.70
2018-11-26T18:23:20.020Z,16.93
2018-11-26T18:25:48.232Z,17.75
2018-11-26T18:28:17.198Z,17.73
2018-11-26T18:30:49.469Z,17.27
2018-11-26T18:33:17.592Z,18.35
2018-11-26T18:35:46.416Z,17.92
2018-11-26T18:38:14.606Z,16.90
2018-11-26T18:40:44.177Z,17.27
2018-11-26T18:43:12.292Z,16.93
2018-11-26T18:45:41.264Z,17.77
2018-11-26T18:48:10.610Z,17.27
2018-11-26T18:50:39.000Z,17.65
2018-11-26T18:53:07.996Z,17.70
2018-11-26T18:55:37.214Z,16.80
2018-11-26T18:58:05.421Z,16.87
2018-11-26T19:00:35.600Z,18.20
2018-11-26T19:03:03.720Z,17.25
2018-11-26T19:05:31.901Z,17.42
2018-11-26T19:08:00.072Z,17.55
2018-11-26T19:10:31.529Z,18.75
2018-11-26T19:13:35.665Z,17.70
2018-11-26T19:16:09.164Z,17.30
2018-11-26T19:18:37.267Z,17.55
2018-11-26T19:21:06.256Z,17.95
2018-11-26T19:23:34.356Z,17.92
2018-11-26T19:26:02.468Z,17.67
2018-11-26T19:28:30.629Z,18.80
2018-11-26T19:30:58.722Z,18.05
2018-11-26T19:33:26.905Z,18.35
2018-11-26T19:35:55.004Z,19.70
2018-11-26T19:38:23.205Z,18.75
2018-11-26T19:40:51.373Z,19.17
2018-11-26T19:43:19.551Z,18.75
2018-11-26T19:45:47.649Z,18.98
2018-11-26T19:48:15.809Z,18.87
2018-11-26T19:50:43.914Z,20.25
2018-11-26T19:53:12.385Z,19.77
2018-11-26T19:55:41.900Z,19.48
2018-11-26T19:58:10.269Z,19.77
2018-11-26T20:00:38.912Z,21.07
2018-11-26T20:03:14.755Z,22.32
2018-11-26T20:05:51.604Z,25.92
2018-11-26T20:08:19.657Z,21.97
2018-11-26T20:10:47.853Z,20.57
2018-11-26T20:13:16.029Z,22.67
2018-11-26T20:15:44.220Z,20.65
2018-11-26T20:18:12.423Z,19.10
2018-11-26T20:20:40.592Z,20.17
2018-11-26T20:23:08.808Z,20.57
2018-11-26T20:25:37.299Z,18.60
2018-11-26T20:28:05.788Z,18.45
2018-11-26T20:30:33.887Z,18.48
2018-11-26T20:33:02.036Z,17.45
2018-11-26T20:35:30.233Z,17.42
2018-11-26T20:37:58.320Z,16.87
2018-11-26T20:40:26.565Z,18.02
2018-11-26T20:42:55.852Z,17.37
2018-11-26T20:45:24.000Z,17.62
2018-11-26T20:47:52.960Z,16.02
2018-11-26T20:50:25.460Z,16.45
2018-11-26T20:52:53.556Z,16.35
2018-11-26T20:55:22.728Z,15.85
2018-11-26T20:57:51.856Z,16.23
2018-11-26T21:00:21.173Z,16.05
2018-11-26T21:02:50.694Z,15.45
2018-11-26T21:05:18.797Z,16.37
2018-11-26T21:07:46.892Z,15.30
2018-11-26T21:10:15.720Z,14.60
2018-11-26T21:12:43.878Z,15.20
2018-11-26T21:15:13.888Z,15.23
2018-11-26T21:17:43.186Z,14.63
2018-11-26T21:20:13.328Z,14.13
2018-11-26T21:22:41.428Z,14.85
2018-11-26T21:25:13.072Z,15.08
2018-11-26T21:27:41.195Z,14.68
2018-11-26T21:30:11.701Z,13.88
2018-11-26T21:32:39.996Z,14.13
2018-11-26T21:35:09.662Z,13.68
2018-11-26T21:37:38.163Z,14.53
2018-11-26T21:40:08.240Z,13.55
2018-11-26T21:42:36.357Z,13.45
2018-11-26T21:45:06.570Z,13.98
2018-11-26T21:47:34.677Z,14.50
2018-11-26T21:50:02.852Z,12.78
2018-11-26T21:52:30.960Z,13.28
2018-11-26T21:54:59.120Z,12.63
2018-11-26T21:57:27.212Z,12.93
2018-11-26T21:59:55.308Z,11.93
2018-11-26T22:02:23.485Z,12.68
2018-11-26T22:04:51.568Z,12.58
2018-11-26T22:07:19.665Z,12.23
2018-11-26T22:09:47.850Z,12.10
2018-11-26T22:12:16.976Z,12.65
2018-11-26T22:14:45.145Z,11.60
2018-11-26T22:17:13.229Z,10.95
2018-11-26T22:19:41.408Z,11.18
2018-11-26T22:22:10.566Z,11.60
2018-11-26T22:24:38.696Z,11.33
2018-11-26T22:27:06.788Z,10.90
2018-11-26T22:29:34.873Z,10.98
2018-11-26T22:32:02.960Z,12.47
2018-11-26T22:34:31.044Z,11.93
2018-11-26T22:36:59.150Z,13.10
2018-11-26T22:39:27.209Z,12.90
2018-11-26T22:41:55.287Z,12.15
2018-11-26T22:44:23.387Z,12.65
2018-11-26T22:46:51.456Z,12.53
2018-11-26T22:49:19.529Z,12.53
2018-11-26T22:51:51.519Z,12.80
2018-11-26T22:54:15.732Z,13.13
2018-11-26T22:56:43.904Z,12.53
2018-11-26T22:59:12.012Z,13.72
2018-11-26T23:01:40.193Z,12.13
2018-11-26T23:04:08.368Z,12.70
2018-11-26T23:06:36.581Z,13.13
2018-11-26T23:09:07.736Z,13.28
2018-11-26T23:11:35.909Z,13.78
2018-11-26T23:14:04.148Z,13.32
2018-11-26T23:16:32.280Z,13.70
2018-11-26T23:19:00.468Z,12.80
2018-11-26T23:21:28.657Z,13.95
2018-11-26T23:23:56.840Z,12.75
2018-11-26T23:26:25.017Z,12.05
2018-11-26T23:28:53.119Z,12.35
2018-11-26T23:31:21.292Z,12.82
2018-11-26T23:33:49.489Z,13.45
2018-11-26T23:36:17.667Z,12.58
2018-11-26T23:38:45.877Z,12.13
2018-11-26T23:41:14.038Z,11.28
2018-11-26T23:43:42.131Z,11.63
2018-11-26T23:46:10.313Z,11.63
2018-11-26T23:48:38.403Z,11.97
2018-11-26T23:51:06.804Z,11.95
2018-11-26T23:53:34.980Z,11.70
2018-11-26T23:56:03.161Z,11.40
2018-11-26T23:58:31.340Z,11.20
